createdAt,value
2018-12-08T00:02:07.731Z,100077.23
2018-12-08T00:04:37.468Z,100076.25
2018-12-08T00:07:07.136Z,100073.89
2018-12-08T00:09:36.829Z,100077.23
2018-12-08T00:12:06.578Z,100082.57
2018-12-08T00:14:36.331Z,100085.24
2018-12-08T00:17:06.045Z,100079.58
2018-12-08T00:19:35.716Z,100074.41
2018-12-08T00:22:05.587Z,100072.91
2018-12-08T00:24:35.265Z,100066.70
2018-12-08T00:27:05.043Z,100065.21
2018-12-08T00:29:34.766Z,100072.91
2018-12-08T00:32:04.477Z,100067.56
2018-12-08T00:34:34.160Z,100067.22
2018-12-08T00:37:03.849Z,100064.55
2018-12-08T00:39:33.545Z,100064.23
2018-12-08T00:42:03.246Z,100056.89
2018-12-08T00:44:32.906Z,100060.70
2018-12-08T00:47:02.596Z,100063.05
2018-12-08T00:49:32.268Z,100048.02
2018-12-08T00:52:01.975Z,100059.05
2018-12-08T00:54:31.640Z,100054.53
2018-12-08T00:57:01.329Z,100043.34
2018-12-08T00:59:31.044Z,100042.36
2018-12-08T01:02:00.814Z,100042.52
2018-12-08T01:04:30.497Z,100032.66
2018-12-08T01:07:00.202Z,100027.83
2018-12-08T01:09:29.965Z,100021.98
2018-12-08T01:11:59.629Z,100012.16
2018-12-08T01:14:29.320Z,100006.66
2018-12-08T01:16:58.975Z,100005.80
2018-12-08T01:19:28.667Z,100002.81
2018-12-08T01:21:58.328Z,99997.80
2018-12-08T01:24:28.024Z,99992.45
2018-12-08T01:26:57.708Z,99989.78
2018-12-08T01:29:27.362Z,99982.12
2018-12-08T01:31:57.044Z,99976.95
2018-12-08T01:34:26.709Z,99967.61
2018-12-08T01:36:56.413Z,99966.78
2018-12-08T01:39:26.039Z,99969.77
2018-12-08T01:41:55.744Z,99968.78
2018-12-08T01:44:25.398Z,99967.11
2018-12-08T01:46:55.085Z,99962.78
2018-12-08T01:49:24.736Z,99971.81
2018-12-08T01:51:54.464Z,99964.12
2018-12-08T01:54:24.130Z,99962.78
2018-12-08T01:56:53.825Z,99963.80
2018-12-08T01:59:23.474Z,99949.79
2018-12-08T02:01:53.173Z,99949.44
2018-12-08T02:04:22.813Z,99948.11
2018-12-08T02:06:52.496Z,99934.77
2018-12-08T02:09:22.166Z,99934.77
2018-12-08T02:11:51.849Z,99931.11
2018-12-08T02:14:21.488Z,99930.92
2018-12-08T02:16:51.160Z,99927.42
2018-12-08T02:19:20.856Z,99926.09
2018-12-08T02:21:50.575Z,99922.25
2018-12-08T02:24:20.236Z,99916.24
2018-12-08T02:26:49.983Z,99916.44
2018-12-08T02:29:19.693Z,99920.92
2018-12-08T02:31:49.349Z,99918.91
2018-12-08T02:34:19.012Z,99919.58
2018-12-08T02:36:48.663Z,99924.92
2018-12-08T02:39:18.368Z,99924.09
2018-12-08T02:41:48.029Z,99924.09
2018-12-08T02:44:17.763Z,99922.45
2018-12-08T02:46:47.406Z,99923.78
2018-12-08T02:49:17.088Z,99925.11
2018-12-08T02:51:46.738Z,99919.78
2018-12-08T02:54:16.403Z,99920.76
2018-12-08T02:56:46.095Z,99921.43
2018-12-08T02:59:15.749Z,99789.45
2018-12-08T03:01:45.462Z,99916.44
2018-12-08T03:04:15.157Z,99919.62
2018-12-08T03:06:44.856Z,99914.09
2018-12-08T03:09:14.548Z,99914.09
2018-12-08T03:11:44.278Z,99907.61
2018-12-08T03:14:13.975Z,99905.61
2018-12-08T03:16:43.668Z,99900.09
2018-12-08T03:19:13.484Z,99900.09
2018-12-08T03:21:43.153Z,99901.42
2018-12-08T03:24:12.833Z,99900.09
2018-12-08T03:26:42.500Z,99895.10
2018-12-08T03:29:12.191Z,99897.61
2018-12-08T03:31:41.847Z,99901.42
2018-12-08T03:34:11.650Z,99902.75
2018-12-08T03:36:41.351Z,99892.44
2018-12-08T03:39:11.020Z,99892.08
2018-12-08T03:41:40.704Z,99881.61
2018-12-08T03:44:10.378Z,99889.45
2018-12-08T03:46:40.058Z,99887.44
2018-12-08T03:49:09.702Z,99886.11
2018-12-08T03:51:39.412Z,99885.74
2018-12-08T03:54:09.087Z,99888.06
2018-12-08T03:56:38.807Z,99880.88
2018-12-08T03:59:08.465Z,99889.55
2018-12-08T04:01:38.200Z,99892.89
2018-12-08T04:04:07.905Z,99888.73
2018-12-08T04:06:37.614Z,99896.41
2018-12-08T04:09:07.420Z,99890.75
2018-12-08T04:11:37.102Z,99890.91
2018-12-08T04:14:06.793Z,99892.59
2018-12-08T04:16:36.490Z,99893.43
2018-12-08T04:19:06.159Z,99892.93
2018-12-08T04:21:35.836Z,99890.93
2018-12-08T04:24:05.495Z,99890.58
2018-12-08T04:26:35.203Z,99892.11
2018-12-08T04:29:04.900Z,99896.27
2018-12-08T04:31:34.573Z,99900.78
2018-12-08T04:34:04.321Z,99897.09
2018-12-08T04:36:33.995Z,99891.44
2018-12-08T04:39:04.304Z,99895.25
2018-12-08T04:41:33.940Z,99885.60
2018-12-08T04:44:03.837Z,99884.39
2018-12-08T04:46:33.501Z,99884.41
2018-12-08T04:49:03.171Z,99874.88
2018-12-08T04:51:32.865Z,99874.89
2018-12-08T04:54:02.553Z,99878.38
2018-12-08T04:56:32.204Z,99875.56
2018-12-08T04:59:01.881Z,99876.24
2018-12-08T05:01:31.529Z,99880.91
2018-12-08T05:04:01.271Z,99879.73
2018-12-08T05:06:30.938Z,99882.23
2018-12-08T05:09:00.735Z,99879.55
2018-12-08T05:11:30.383Z,99878.03
2018-12-08T05:14:00.072Z,99878.87
2018-12-08T05:16:29.728Z,99888.06
2018-12-08T05:19:00.508Z,99890.58
2018-12-08T05:21:30.227Z,99886.91
2018-12-08T05:23:59.925Z,99889.07
2018-12-08T05:26:29.580Z,99887.42
2018-12-08T05:28:59.256Z,99883.43
2018-12-08T05:31:28.956Z,99886.92
2018-12-08T05:33:58.649Z,99880.42
2018-12-08T05:36:28.330Z,99885.59
2018-12-08T05:38:58.023Z,99874.43
2018-12-08T05:41:27.838Z,99880.43
2018-12-08T05:43:57.549Z,99880.11
2018-12-08T05:46:27.221Z,99874.43
2018-12-08T05:48:56.958Z,99876.11
2018-12-08T05:51:26.612Z,99873.77
2018-12-08T05:53:56.281Z,99869.61
2018-12-08T05:56:25.981Z,99870.78
2018-12-08T05:58:55.724Z,99868.11
2018-12-08T06:01:25.428Z,99870.43
2018-12-08T06:03:55.166Z,99866.94
2018-12-08T06:06:24.837Z,99867.77
2018-12-08T06:08:54.538Z,99863.61
2018-12-08T06:11:24.284Z,99863.77
2018-12-08T06:13:53.940Z,99856.94
2018-12-08T06:16:23.655Z,99856.94
2018-12-08T06:18:53.346Z,99859.59
2018-12-08T06:21:35.980Z,99859.91
2018-12-08T06:24:05.913Z,99866.42
2018-12-08T06:26:44.429Z,99867.75
2018-12-08T06:29:14.322Z,99868.57
2018-12-08T06:31:44.191Z,99874.89
2018-12-08T06:34:13.879Z,99886.89
2018-12-08T06:36:43.549Z,99887.41
2018-12-08T06:39:13.247Z,99889.56
2018-12-08T06:41:42.896Z,99891.56
2018-12-08T06:44:12.744Z,99896.06
2018-12-08T06:46:42.721Z,99890.20
2018-12-08T06:49:12.509Z,99894.85
2018-12-08T06:51:42.214Z,99884.32
2018-12-08T06:54:12.027Z,99885.13
2018-12-08T06:56:41.728Z,99880.65
2018-12-08T06:59:11.372Z,99875.65
2018-12-08T07:01:41.116Z,99877.63
2018-12-08T07:04:10.788Z,99876.12
2018-12-08T07:06:40.453Z,99880.66
2018-12-08T07:09:10.121Z,99880.98
2018-12-08T07:11:39.826Z,99868.09
2018-12-08T07:14:09.498Z,99869.42
2018-12-08T07:16:39.187Z,99867.70
2018-12-08T07:19:08.912Z,99871.06
2018-12-08T07:21:38.729Z,99868.22
2018-12-08T07:24:08.373Z,99868.31
2018-12-08T07:26:38.072Z,99871.22
2018-12-08T07:29:07.918Z,99862.63
2018-12-08T07:31:37.557Z,99862.08
2018-12-08T07:34:07.268Z,99855.77
2018-12-08T07:36:36.975Z,99855.02
2018-12-08T07:39:07.776Z,99843.58
2018-12-08T07:41:37.429Z,99851.95
2018-12-08T07:44:07.181Z,99854.99
2018-12-08T07:46:36.977Z,99848.36
2018-12-08T07:49:06.683Z,99854.07
2018-12-08T07:51:36.364Z,99850.62
2018-12-08T07:54:06.080Z,99852.44
2018-12-08T07:56:35.769Z,99846.77
2018-12-08T07:59:05.496Z,99845.09
2018-12-08T08:01:35.200Z,99847.34
2018-12-08T08:04:04.860Z,99858.95
2018-12-08T08:06:34.641Z,99861.45
2018-12-08T08:09:05.089Z,99863.95
2018-12-08T08:11:34.840Z,99861.72
2018-12-08T08:14:04.548Z,99861.97
2018-12-08T08:16:34.252Z,99858.03
2018-12-08T08:19:04.051Z,99856.36
2018-12-08T08:21:33.753Z,99868.67
2018-12-08T08:24:03.420Z,99863.38
2018-12-08T08:26:33.111Z,99854.80
2018-12-08T08:29:02.800Z,99859.04
2018-12-08T08:31:32.507Z,99850.31
2018-12-08T08:34:02.197Z,99847.54
2018-12-08T08:36:31.876Z,99839.86
2018-12-08T08:39:01.559Z,99839.13
2018-12-08T08:41:31.225Z,99824.02
2018-12-08T08:44:00.964Z,99834.16
2018-12-08T08:46:30.597Z,99816.20
2018-12-08T08:49:00.289Z,99817.95
2018-12-08T08:51:29.957Z,99806.73
2018-12-08T08:53:59.669Z,99797.89
2018-12-08T08:56:29.368Z,99790.91
2018-12-08T08:58:59.067Z,99772.52
2018-12-08T09:01:28.721Z,99769.37
2018-12-08T09:03:58.428Z,99779.40
2018-12-08T09:06:28.096Z,99783.34
2018-12-08T09:08:57.776Z,99783.12
2018-12-08T09:11:27.495Z,99780.66
2018-12-08T09:13:57.173Z,99773.53
2018-12-08T09:16:26.831Z,99765.39
2018-12-08T09:18:56.554Z,99756.42
2018-12-08T09:21:26.200Z,99755.79
2018-12-08T09:23:55.905Z,99749.78
2018-12-08T09:26:25.580Z,99742.66
2018-12-08T09:28:55.293Z,99744.77
2018-12-08T09:31:25.028Z,99732.34
2018-12-08T09:33:54.717Z,99739.30
2018-12-08T09:36:24.421Z,99720.40
2018-12-08T09:38:54.100Z,99719.81
2018-12-08T09:41:23.786Z,99723.33
2018-12-08T09:43:53.484Z,99722.61
2018-12-08T09:46:23.186Z,99724.58
2018-12-08T09:48:52.993Z,99708.75
2018-12-08T09:51:22.685Z,99712.49
2018-12-08T09:53:52.352Z,99715.47
2018-12-08T09:56:22.065Z,99713.64
2018-12-08T09:58:51.724Z,99708.17
2018-12-08T10:01:21.420Z,99708.08
2018-12-08T10:03:51.106Z,99708.61
2018-12-08T10:06:20.816Z,99703.63
2018-12-08T10:08:50.458Z,99694.64
2018-12-08T10:11:20.140Z,99695.88
2018-12-08T10:13:49.849Z,99696.94
2018-12-08T10:16:19.565Z,99694.02
2018-12-08T10:18:49.264Z,99693.81
2018-12-08T10:21:18.972Z,99697.25
2018-12-08T10:23:48.721Z,99703.96
2018-12-08T10:26:18.396Z,99694.22
2018-12-08T10:28:48.996Z,99690.68
2018-12-08T10:31:18.753Z,99687.23
2018-12-08T10:33:48.462Z,99682.16
2018-12-08T10:36:18.128Z,99677.04
2018-12-08T10:38:47.817Z,99682.52
2018-12-08T10:41:17.529Z,99676.28
2018-12-08T10:43:47.188Z,99673.35
2018-12-08T10:46:16.865Z,99666.50
2018-12-08T10:48:46.557Z,99668.34
2018-12-08T10:51:16.241Z,99659.08
2018-12-08T10:53:45.944Z,99657.08
2018-12-08T10:56:15.611Z,99650.58
2018-12-08T10:58:45.303Z,99652.01
2018-12-08T11:01:18.744Z,99647.31
2018-12-08T11:03:49.937Z,99653.31
2018-12-08T11:06:19.637Z,99657.64
2018-12-08T11:08:49.292Z,99649.71
2018-12-08T11:11:18.965Z,99632.11
2018-12-08T11:13:48.617Z,99633.81
2018-12-08T11:16:18.292Z,99625.59
2018-12-08T11:18:47.937Z,99624.40
2018-12-08T11:21:17.636Z,99613.19
2018-12-08T11:23:47.348Z,99614.22
2018-12-08T11:26:17.080Z,99610.49
2018-12-08T11:28:46.836Z,99598.64
2018-12-08T11:31:16.506Z,99604.30
2018-12-08T11:33:46.181Z,99600.58
2018-12-08T11:36:15.881Z,99610.39
2018-12-08T11:38:45.483Z,99601.34
2018-12-08T11:41:15.184Z,99596.10
2018-12-08T11:43:44.860Z,99600.02
2018-12-08T11:46:14.572Z,99599.88
2018-12-08T11:48:44.226Z,99601.09
2018-12-08T11:51:13.925Z,99604.24
2018-12-08T11:53:43.600Z,99594.67
2018-12-08T11:56:13.244Z,99586.86
2018-12-08T11:58:42.956Z,99588.00
2018-12-08T12:01:12.668Z,99588.81
2018-12-08T12:03:42.329Z,99584.95
2018-12-08T12:06:12.022Z,99587.08
2018-12-08T12:08:41.820Z,99584.70
2018-12-08T12:11:11.537Z,99577.95
2018-12-08T12:13:41.257Z,99572.31
2018-12-08T12:16:10.913Z,99574.51
2018-12-08T12:18:40.617Z,99575.61
2018-12-08T12:21:10.252Z,99572.41
2018-12-08T12:23:39.940Z,99569.61
2018-12-08T12:26:09.586Z,99575.01
2018-12-08T12:28:39.316Z,99578.88
2018-12-08T12:31:08.976Z,99580.66
2018-12-08T12:33:38.657Z,99577.00
2018-12-08T12:36:08.393Z,99565.28
2018-12-08T12:38:38.058Z,99565.06
2018-12-08T12:41:07.792Z,99554.27
2018-12-08T12:43:37.469Z,99550.12
2018-12-08T12:46:07.124Z,99544.09
2018-12-08T12:48:36.860Z,99547.20
2018-12-08T12:51:06.479Z,99542.14
2018-12-08T12:53:36.163Z,99548.52
2018-12-08T12:56:05.837Z,99551.97
2018-12-08T12:58:35.512Z,99533.36
2018-12-08T13:01:05.157Z,99535.11
2018-12-08T13:03:34.844Z,99536.23
2018-12-08T13:06:04.620Z,99521.69
2018-12-08T13:08:34.268Z,99514.66
2018-12-08T13:11:03.981Z,99515.90
2018-12-08T13:13:33.740Z,99522.79
2018-12-08T13:16:03.502Z,99512.67
2018-12-08T13:18:33.161Z,99508.16
2018-12-08T13:21:02.878Z,99513.41
2018-12-08T13:23:32.573Z,99511.13
2018-12-08T13:26:02.301Z,99509.19
2018-12-08T13:31:00.896Z,99481.67
2018-12-08T13:33:30.520Z,99469.57
2018-12-08T13:36:01.607Z,99475.23
2018-12-08T13:38:31.317Z,99472.38
2018-12-08T13:41:00.960Z,99475.66
2018-12-08T13:43:30.787Z,99485.44
2018-12-08T13:46:00.496Z,99437.05
2018-12-08T13:48:32.688Z,99497.48
2018-12-08T13:51:02.439Z,99514.47
2018-12-08T13:53:36.688Z,99518.80
2018-12-08T13:56:03.946Z,99519.78
2018-12-08T13:58:33.628Z,99523.95
2018-12-08T14:01:03.362Z,99516.08
2018-12-08T14:03:32.990Z,99523.67
2018-12-08T14:06:02.688Z,99526.16
2018-12-08T14:08:32.346Z,99529.59
2018-12-08T14:11:02.016Z,99530.81
2018-12-08T14:13:31.683Z,99525.21
2018-12-08T14:16:01.381Z,99532.89
2018-12-08T14:18:31.088Z,99539.50
2018-12-08T14:21:00.745Z,99538.16
2018-12-08T14:23:30.426Z,99541.18
2018-12-08T14:26:00.153Z,99561.28
2018-12-08T14:28:30.217Z,99571.93
2018-12-08T14:30:59.909Z,99561.94
2018-12-08T14:33:29.637Z,99562.05
2018-12-08T14:35:59.276Z,99555.10
2018-12-08T14:38:28.966Z,99553.11
2018-12-08T14:40:58.653Z,99544.10
2018-12-08T14:43:28.360Z,99550.09
2018-12-08T14:45:58.072Z,99565.92
2018-12-08T14:48:27.735Z,99573.71
2018-12-08T14:50:57.564Z,99578.70
2018-12-08T14:53:27.325Z,99575.28
2018-12-08T14:55:57.024Z,99567.94
2018-12-08T14:58:26.656Z,99564.84
2018-12-08T15:00:56.342Z,99544.89
2018-12-08T15:03:27.204Z,99540.85
2018-12-08T15:05:57.052Z,99548.20
2018-12-08T15:08:26.721Z,99543.55
2018-12-08T15:10:56.389Z,99547.26
2018-12-08T15:13:26.057Z,99557.11
2018-12-08T15:15:55.760Z,99554.30
2018-12-08T15:18:25.448Z,99552.05
2018-12-08T15:20:55.121Z,99542.95
2018-12-08T15:23:24.832Z,99536.33
2018-12-08T15:25:54.590Z,99542.35
2018-12-08T15:28:24.256Z,99562.45
2018-12-08T15:30:54.041Z,99579.02
2018-12-08T15:33:23.713Z,99574.57
2018-12-08T15:35:53.429Z,99572.50
2018-12-08T15:38:23.065Z,99585.22
2018-12-08T15:40:52.798Z,99597.13
2018-12-08T15:43:22.518Z,99585.12
2018-12-08T15:45:52.241Z,99586.03
2018-12-08T15:48:21.897Z,99571.05
2018-12-08T15:50:51.596Z,99570.00
2018-12-08T15:53:21.261Z,99567.83
2018-12-08T15:55:50.952Z,99561.55
2018-12-08T15:58:20.632Z,99572.70
2018-12-08T16:00:50.356Z,99568.27
2018-12-08T16:03:20.047Z,99563.62
2018-12-08T16:05:49.710Z,99562.67
2018-12-08T16:08:19.409Z,99569.30
2018-12-08T16:10:49.088Z,99575.69
2018-12-08T16:13:18.790Z,99568.34
2018-12-08T16:15:48.497Z,99580.88
2018-12-08T16:18:18.227Z,99577.53
2018-12-08T16:20:47.912Z,99574.64
2018-12-08T16:23:17.576Z,99577.73
2018-12-08T16:25:47.320Z,99569.23
2018-12-08T16:28:16.979Z,99571.53
2018-12-08T16:30:46.685Z,99569.86
2018-12-08T16:33:16.397Z,99567.08
2018-12-08T16:35:46.064Z,99565.92
2018-12-08T16:38:15.741Z,99565.11
2018-12-08T16:40:45.441Z,99561.60
2018-12-08T16:43:15.153Z,99567.37
2018-12-08T16:45:44.860Z,99567.07
2018-12-08T16:48:14.546Z,99555.61
2018-12-08T16:50:44.261Z,99556.42
2018-12-08T16:53:13.958Z,99552.69
2018-12-08T16:55:43.757Z,99561.60
2018-12-08T16:58:13.447Z,99560.26
2018-12-08T17:00:43.225Z,99562.00
2018-12-08T17:03:12.965Z,99546.83
2018-12-08T17:05:42.669Z,99542.17
2018-12-08T17:08:12.331Z,99551.87
2018-12-08T17:10:42.010Z,99558.06
2018-12-08T17:13:11.678Z,99572.92
2018-12-08T17:15:41.361Z,99580.14
2018-12-08T17:18:11.085Z,99428.91
2018-12-08T17:20:40.746Z,99592.61
2018-12-08T17:23:10.465Z,99595.20
2018-12-08T17:25:40.133Z,99458.16
2018-12-08T17:28:09.829Z,99591.09
2018-12-08T17:30:39.505Z,99588.11
2018-12-08T17:33:09.227Z,99589.76
2018-12-08T17:35:38.907Z,99596.58
2018-12-08T17:38:08.621Z,99596.91
2018-12-08T17:40:38.280Z,99595.36
2018-12-08T17:43:07.975Z,99606.21
2018-12-08T17:45:37.629Z,99598.16
2018-12-08T17:48:07.328Z,99594.95
2018-12-08T17:50:36.979Z,99589.23
2018-12-08T17:53:06.690Z,99580.16
2018-12-08T17:55:36.528Z,99584.39
2018-12-08T17:58:06.168Z,99587.79
2018-12-08T18:00:35.921Z,99582.84
2018-12-08T18:03:05.653Z,99572.38
2018-12-08T18:05:35.393Z,99569.78
2018-12-08T18:08:05.089Z,99576.29
2018-12-08T18:10:34.772Z,99576.77
2018-12-08T18:13:04.425Z,99575.41
2018-12-08T18:15:34.137Z,99567.64
2018-12-08T18:18:03.800Z,99570.92
2018-12-08T18:20:33.505Z,99571.73
2018-12-08T18:23:03.204Z,99564.28
2018-12-08T18:25:32.865Z,99559.80
2018-12-08T18:28:02.565Z,99569.19
2018-12-08T18:30:32.205Z,99564.23
2018-12-08T18:33:01.936Z,99561.30
2018-12-08T18:35:31.620Z,99567.79
2018-12-08T18:38:01.338Z,99574.58
2018-12-08T18:40:32.054Z,99582.06
2018-12-08T18:43:01.885Z,99577.83
2018-12-08T18:45:31.541Z,99576.23
2018-12-08T18:48:01.232Z,99579.32
2018-12-08T18:50:30.929Z,99586.73
2018-12-08T18:53:00.638Z,99577.20
2018-12-08T18:55:30.278Z,99573.06
2018-12-08T18:57:59.999Z,99572.32
2018-12-08T19:00:29.814Z,99571.17
2018-12-08T19:02:59.545Z,99555.56
2018-12-08T19:05:29.266Z,99555.30
2018-12-08T19:07:58.920Z,99559.62
2018-12-08T19:10:28.673Z,99551.31
2018-12-08T19:12:58.354Z,99564.08
2018-12-08T19:15:28.025Z,99561.28
2018-12-08T19:17:57.813Z,99550.97
2018-12-08T19:20:27.483Z,99552.16
2018-12-08T19:22:57.197Z,99562.25
2018-12-08T19:25:26.920Z,99567.30
2018-12-08T19:27:56.629Z,99555.83
2018-12-08T19:30:26.430Z,99557.94
2018-12-08T19:32:56.100Z,99559.16
2018-12-08T19:35:25.852Z,99562.66
2018-12-08T19:37:55.556Z,99562.27
2018-12-08T19:40:25.252Z,99565.91
2018-12-08T19:42:54.958Z,99567.77
2018-12-08T19:45:24.654Z,99566.75
2018-12-08T19:47:54.383Z,99559.59
2018-12-08T19:50:24.033Z,99565.20
2018-12-08T19:52:53.754Z,99570.50
2018-12-08T19:55:23.456Z,99570.61
2018-12-08T19:57:53.142Z,99563.33
2018-12-08T20:00:22.804Z,99559.76
2018-12-08T20:02:52.534Z,99554.33
2018-12-08T20:05:22.189Z,99547.81
2018-12-08T20:07:51.941Z,99548.15
2018-12-08T20:10:21.637Z,99547.62
2018-12-08T20:12:51.337Z,99550.61
2018-12-08T20:15:21.209Z,99540.41
2018-12-08T20:17:50.876Z,99543.91
2018-12-08T20:20:20.569Z,99543.09
2018-12-08T20:22:50.242Z,99533.08
2018-12-08T20:25:19.921Z,99534.60
2018-12-08T20:27:49.628Z,99527.48
2018-12-08T20:30:19.365Z,99525.00
2018-12-08T20:32:49.124Z,99533.73
2018-12-08T20:35:18.847Z,99528.05
2018-12-08T20:37:48.505Z,99524.43
2018-12-08T20:40:18.216Z,99520.67
2018-12-08T20:42:47.881Z,99519.33
2018-12-08T20:45:17.590Z,99516.02
2018-12-08T20:47:47.308Z,99513.03
2018-12-08T20:50:17.001Z,99512.40
2018-12-08T20:52:46.681Z,99504.73
2018-12-08T20:55:16.388Z,99502.05
2018-12-08T20:57:46.144Z,99504.03
2018-12-08T21:00:15.804Z,99510.42
2018-12-08T21:02:45.522Z,99502.58
2018-12-08T21:05:15.173Z,99498.75
2018-12-08T21:07:44.877Z,99505.91
2018-12-08T21:10:14.564Z,99498.88
2018-12-08T21:12:44.301Z,99511.16
2018-12-08T21:15:14.053Z,99507.02
2018-12-08T21:17:43.725Z,99507.79
2018-12-08T21:20:13.442Z,99503.12
2018-12-08T21:22:43.117Z,99505.80
2018-12-08T21:25:12.868Z,99504.67
2018-12-08T21:27:42.541Z,99512.58
2018-12-08T21:30:12.278Z,99513.77
2018-12-08T21:32:41.944Z,99524.94
2018-12-08T21:35:11.636Z,99518.13
2018-12-08T21:37:41.284Z,99517.72
2018-12-08T21:40:30.141Z,99525.17
2018-12-08T21:42:59.825Z,99523.98
2018-12-08T21:45:29.813Z,99530.05
2018-12-08T21:47:59.483Z,99523.27
2018-12-08T21:50:29.264Z,99511.55
2018-12-08T21:52:59.108Z,99507.06
2018-12-08T21:55:28.813Z,99509.31
2018-12-08T21:57:58.525Z,99508.91
2018-12-08T22:00:28.182Z,99499.98
2018-12-08T22:02:57.928Z,99497.77
2018-12-08T22:05:27.568Z,99487.87
2018-12-08T22:07:57.312Z,99474.86
2018-12-08T22:10:26.956Z,99472.73
2018-12-08T22:12:56.693Z,99471.92
2018-12-08T22:15:26.423Z,99471.14
2018-12-08T22:17:56.079Z,99470.06
2018-12-08T22:20:25.765Z,99468.31
2018-12-08T22:22:55.448Z,99471.44
2018-12-08T22:25:25.108Z,99479.92
2018-12-08T22:27:54.808Z,99474.94
2018-12-08T22:30:24.461Z,99470.43
2018-12-08T22:32:54.133Z,99470.43
2018-12-08T22:35:23.904Z,99466.30
2018-12-08T22:37:53.673Z,99469.61
2018-12-08T22:40:23.340Z,99465.52
2018-12-08T22:42:53.026Z,99477.50
2018-12-08T22:45:22.680Z,99472.47
2018-12-08T22:47:52.373Z,99469.08
2018-12-08T22:50:22.105Z,99466.52
2018-12-08T22:52:51.780Z,99461.91
2018-12-08T22:55:21.517Z,99460.78
2018-12-08T22:57:51.148Z,99463.71
2018-12-08T23:00:31.642Z,99461.25
2018-12-08T23:03:01.328Z,99467.23
2018-12-08T23:05:31.004Z,99471.19
2018-12-08T23:08:00.769Z,99470.17
2018-12-08T23:10:30.495Z,99458.59
2018-12-08T23:13:00.257Z,99458.92
2018-12-08T23:15:29.955Z,99454.80
2018-12-08T23:17:59.661Z,99466.72
2018-12-08T23:20:29.362Z,99470.63
2018-12-08T23:22:59.043Z,99465.69
2018-12-08T23:25:28.724Z,99461.03
2018-12-08T23:27:58.396Z,99455.83
2018-12-08T23:30:28.129Z,99455.09
2018-12-08T23:32:57.788Z,99455.13
2018-12-08T23:35:27.803Z,99463.33
2018-12-08T23:37:57.468Z,99457.59
2018-12-08T23:40:27.178Z,99454.88
2018-12-08T23:42:56.995Z,99447.63
2018-12-08T23:45:26.670Z,99453.35
2018-12-08T23:47:56.384Z,99458.17
2018-12-08T23:50:26.076Z,99454.23
2018-12-08T23:52:55.814Z,99452.75
2018-12-08T23:55:25.539Z,99448.45
2018-12-08T23:57:55.255Z,99449.73
